Time;durP1;ratioP1;P1;durP2;ratioP2;P2;SDS_P1;SDS_P2;PMS_P1;PMS_P2;Temp;Humidity;BMP_temperature;BMP_pressure;BME280_temperature;BME280_humidity;BME280_pressure;Samples;Min_cycle;Max_cycle;Signal;HPM_P1;HPM_P2
2021/01/10 00:02:14;;;;;;;0.80;0.30;;;4.00;69.10;;;;;;5029953;28;20359;-58
2021/01/10 00:04:40;;;;;;;1.02;0.38;;;3.90;69.30;;;;;;5028045;28;20076;-59
2021/01/10 00:07:06;;;;;;;2.70;0.30;;;4.00;70.40;;;;;;5028617;28;20029;-60
2021/01/10 00:09:31;;;;;;;0.77;0.30;;;4.00;69.50;;;;;;5030795;28;20038;-60
2021/01/10 00:11:57;;;;;;;1.73;0.30;;;4.00;69.20;;;;;;5029755;28;20044;-60
2021/01/10 00:14:23;;;;;;;0.85;0.40;;;3.90;69.20;;;;;;5029762;28;20030;-59
2021/01/10 00:16:49;;;;;;;1.58;0.30;;;3.90;68.80;;;;;;5028816;28;20037;-60
2021/01/10 00:19:14;;;;;;;1.00;0.30;;;4.00;70.00;;;;;;5029521;28;20513;-59
2021/01/10 00:21:40;;;;;;;0.90;0.30;;;3.90;70.60;;;;;;5030329;28;20053;-60
2021/01/10 00:24:06;;;;;;;0.60;0.20;;;3.90;70.40;;;;;;5029346;28;20392;-59
2021/01/10 00:26:36;;;;;;;1.00;0.40;;;3.90;70.10;;;;;;5030322;28;20402;-59
2021/01/10 00:29:06;;;;;;;1.42;0.43;;;3.90;69.00;;;;;;5029253;28;20393;-59
2021/01/10 00:31:32;;;;;;;2.03;0.28;;;3.90;68.90;;;;;;5010346;28;20061;-60
2021/01/10 00:33:58;;;;;;;0.93;0.30;;;3.90;69.50;;;;;;5012485;28;20072;-60
2021/01/10 00:36:37;;;;;;;0.90;0.30;;;3.90;68.80;;;;;;5030237;28;20493;-59
2021/01/10 00:39:05;;;;;;;1.10;0.40;;;3.90;69.90;;;;;;5029163;28;20048;-58
2021/01/10 00:41:38;;;;;;;1.58;0.35;;;3.90;68.80;;;;;;5027915;28;20037;-60
2021/01/10 00:44:05;;;;;;;0.70;0.30;;;3.90;69.60;;;;;;5028596;28;20442;-59
2021/01/10 00:46:34;;;;;;;1.30;0.30;;;3.90;68.20;;;;;;5028883;28;20045;-59
2021/01/10 00:49:01;;;;;;;1.05;0.40;;;3.90;69.10;;;;;;5029060;28;20034;-57
2021/01/10 00:51:26;;;;;;;2.75;0.35;;;3.90;70.40;;;;;;5025318;28;20029;-59
2021/01/10 00:53:52;;;;;;;2.03;0.43;;;3.80;70.10;;;;;;5027748;28;20118;-59
2021/01/10 00:56:18;;;;;;;1.08;0.30;;;3.90;70.50;;;;;;5029884;28;20033;-59
2021/01/10 00:58:44;;;;;;;1.10;0.40;;;3.80;71.30;;;;;;5028732;28;20486;-59
2021/01/10 01:01:10;;;;;;;0.70;0.30;;;3.90;69.90;;;;;;5028773;28;20087;-59
2021/01/10 01:03:36;;;;;;;0.93;0.20;;;3.90;69.00;;;;;;5029690;28;20038;-59
2021/01/10 01:06:04;;;;;;;0.80;0.30;;;4.00;68.10;;;;;;5028659;28;20551;-60
2021/01/10 01:08:30;;;;;;;0.93;0.38;;;4.00;67.40;;;;;;5029442;28;20393;-59
2021/01/10 01:10:56;;;;;;;0.73;0.20;;;4.00;68.40;;;;;;5027762;28;20040;-59
2021/01/10 01:13:22;;;;;;;0.90;0.30;;;4.00;69.50;;;;;;5028947;28;20384;-59
2021/01/10 01:15:50;;;;;;;1.50;0.38;;;3.90;69.60;;;;;;5028193;28;20044;-59
2021/01/10 01:18:18;;;;;;;1.05;0.30;;;3.90;69.50;;;;;;5029527;28;20543;-59
2021/01/10 01:20:44;;;;;;;1.75;0.30;;;4.00;68.70;;;;;;5006977;28;20029;-59
2021/01/10 01:23:10;;;;;;;2.65;0.30;;;3.90;70.60;;;;;;5019162;28;20033;-60
2021/01/10 01:25:36;;;;;;;1.33;0.30;;;3.90;69.40;;;;;;5029118;28;20026;-59
2021/01/10 01:28:03;;;;;;;1.13;0.40;;;3.90;70.10;;;;;;5028686;28;20060;-59
2021/01/10 01:30:29;;;;;;;1.08;0.40;;;3.90;69.60;;;;;;5028625;28;20025;-57
2021/01/10 01:32:55;;;;;;;0.82;0.47;;;3.90;69.90;;;;;;5027066;28;20041;-60
2021/01/10 01:35:20;;;;;;;1.42;0.40;;;3.90;70.60;;;;;;5028822;28;20022;-59
2021/01/10 01:37:46;;;;;;;2.38;0.70;;;4.00;71.10;;;;;;5029000;28;20036;-59
2021/01/10 01:40:13;;;;;;;2.15;0.88;;;4.00;70.00;;;;;;5028609;28;20041;-60
2021/01/10 01:42:39;;;;;;;1.17;0.50;;;4.00;71.60;;;;;;5027833;28;20060;-59
2021/01/10 01:45:07;;;;;;;1.90;0.50;;;3.90;72.50;;;;;;5027176;28;20044;-60
2021/01/10 01:47:34;;;;;;;2.03;0.93;;;3.90;72.20;;;;;;5027999;28;20026;-59
2021/01/10 01:50:02;;;;;;;2.15;0.63;;;3.90;72.60;;;;;;5025825;28;20029;-60
2021/01/10 01:52:28;;;;;;;3.42;1.27;;;3.90;73.10;;;;;;5025952;28;20617;-60
2021/01/10 01:54:54;;;;;;;3.40;1.27;;;3.90;73.50;;;;;;5027517;28;20060;-60
2021/01/10 01:57:21;;;;;;;2.53;0.98;;;3.90;74.50;;;;;;5028100;28;20123;-59
2021/01/10 01:59:47;;;;;;;5.45;1.40;;;3.90;74.00;;;;;;5027072;28;20037;-59
2021/01/10 02:02:13;;;;;;;3.50;1.90;;;3.90;75.30;;;;;;5027931;28;20021;-58
2021/01/10 02:04:57;;;;;;;3.40;1.73;;;3.90;76.20;;;;;;5027770;28;20029;-60
2021/01/10 02:07:23;;;;;;;4.82;2.65;;;3.90;76.70;;;;;;5028589;28;20056;-59
2021/01/10 02:09:59;;;;;;;6.03;2.83;;;3.90;77.50;;;;;;5027925;28;20037;-60
2021/01/10 02:12:27;;;;;;;5.25;2.65;;;3.90;78.00;;;;;;5027902;28;20040;-59
2021/01/10 02:15:07;;;;;;;6.88;3.10;;;3.80;78.70;;;;;;5027706;28;20144;-60
2021/01/10 02:17:33;;;;;;;3.85;1.65;;;3.90;79.00;;;;;;5028369;28;20033;-60
2021/01/10 02:20:15;;;;;;;4.22;1.73;;;3.90;77.00;;;;;;5026558;28;20029;-59
2021/01/10 02:22:54;;;;;;;5.97;2.38;;;3.90;78.60;;;;;;5028694;28;20041;-60
2021/01/10 02:25:22;;;;;;;4.53;2.30;;;3.90;78.00;;;;;;5029536;28;20101;-60
2021/01/10 02:27:48;;;;;;;4.15;1.73;;;3.90;77.70;;;;;;5032401;28;20071;-60
2021/01/10 02:30:15;;;;;;;2.72;1.30;;;3.90;76.80;;;;;;5031179;28;20044;-55
2021/01/10 02:32:44;;;;;;;3.50;1.48;;;3.90;76.00;;;;;;5018118;28;20034;-60
2021/01/10 02:35:11;;;;;;;4.03;1.25;;;4.00;75.50;;;;;;5024225;28;20412;-60
2021/01/10 02:37:52;;;;;;;3.47;1.27;;;4.00;75.80;;;;;;5031323;28;20409;-59
2021/01/10 02:40:30;;;;;;;4.45;1.40;;;4.00;74.50;;;;;;5032526;28;20046;-60
2021/01/10 02:43:24;;;;;;;2.58;1.27;;;4.00;76.20;;;;;;5030898;28;20053;-60
2021/01/10 02:45:53;;;;;;;2.50;0.98;;;3.90;75.90;;;;;;5028245;28;20037;-60
2021/01/10 02:48:19;;;;;;;2.45;1.00;;;4.00;76.00;;;;;;5030943;28;20060;-60
2021/01/10 02:50:45;;;;;;;2.45;0.82;;;4.10;74.80;;;;;;5031075;28;20041;-60
2021/01/10 02:53:11;;;;;;;2.40;1.13;;;4.10;74.90;;;;;;5032255;28;20076;-60
2021/01/10 02:55:37;;;;;;;3.03;0.98;;;4.00;75.70;;;;;;5029362;28;20580;-59
2021/01/10 02:58:12;;;;;;;3.35;1.23;;;4.00;75.70;;;;;;5032014;28;20128;-59
2021/01/10 03:00:40;;;;;;;3.08;1.10;;;4.00;76.10;;;;;;5030869;28;20052;-60
2021/01/10 03:05:42;;;;;;;3.08;1.30;;;3.90;77.60;;;;;;4908323;22;20114;-58
2021/01/10 03:08:08;;;;;;;4.43;2.05;;;3.80;78.20;;;;;;5031685;28;20029;-58
2021/01/10 03:10:35;;;;;;;5.55;2.47;;;3.90;79.10;;;;;;5031618;28;20031;-58
2021/01/10 03:13:01;;;;;;;5.53;2.30;;;3.90;79.90;;;;;;5031641;28;20149;-58
2021/01/10 03:15:29;;;;;;;5.35;2.47;;;3.90;80.70;;;;;;5032029;28;20100;-59
2021/01/10 03:17:55;;;;;;;6.85;2.28;;;3.80;81.70;;;;;;5032127;28;20423;-59
2021/01/10 03:20:22;;;;;;;4.75;2.45;;;3.80;81.30;;;;;;5031608;28;20041;-59
2021/01/10 03:22:49;;;;;;;6.55;1.77;;;3.80;81.30;;;;;;5031840;28;20045;-59
2021/01/10 03:25:18;;;;;;;3.60;1.55;;;3.80;80.30;;;;;;5031276;28;20534;-58
2021/01/10 03:27:44;;;;;;;4.10;1.38;;;3.80;80.50;;;;;;5031192;28;20577;-59
2021/01/10 03:30:13;;;;;;;4.47;1.65;;;3.80;80.30;;;;;;5031490;28;20120;-58
2021/01/10 03:32:39;;;;;;;3.35;1.45;;;3.80;78.70;;;;;;5031240;28;20639;-58
2021/01/10 03:35:06;;;;;;;1.95;0.85;;;3.90;77.60;;;;;;5031338;28;20121;-58
2021/01/10 03:37:33;;;;;;;2.08;1.00;;;3.90;77.70;;;;;;5030970;28;20029;-57
2021/01/10 03:40:00;;;;;;;2.70;0.73;;;4.00;77.00;;;;;;5031143;28;20033;-59
2021/01/10 03:42:25;;;;;;;2.63;1.05;;;4.00;76.80;;;;;;5031122;28;20041;-59
2021/01/10 03:44:51;;;;;;;5.53;1.42;;;4.00;75.80;;;;;;5031037;28;20036;-59
2021/01/10 03:47:17;;;;;;;2.47;1.48;;;4.00;76.10;;;;;;5031084;28;20037;-59
2021/01/10 03:49:43;;;;;;;2.90;1.05;;;4.00;77.20;;;;;;5030682;28;20083;-58
2021/01/10 03:52:09;;;;;;;2.25;0.82;;;3.90;78.10;;;;;;5030852;28;20083;-59
2021/01/10 03:54:34;;;;;;;3.55;1.05;;;3.80;77.00;;;;;;5031301;28;20052;-59
2021/01/10 03:57:00;;;;;;;3.50;0.80;;;3.80;78.50;;;;;;5031120;28;20496;-55
2021/01/10 03:59:26;;;;;;;3.67;0.93;;;3.80;76.60;;;;;;5031204;28;20518;-58
2021/01/10 04:01:52;;;;;;;1.40;0.80;;;4.00;74.90;;;;;;5030847;28;20025;-59
2021/01/10 04:04:17;;;;;;;2.97;1.00;;;4.00;75.10;;;;;;5030465;28;20053;-57
2021/01/10 04:06:43;;;;;;;2.85;0.85;;;3.90;75.00;;;;;;5030734;28;20497;-54
2021/01/10 04:09:09;;;;;;;2.83;1.15;;;4.00;75.80;;;;;;5030960;28;20029;-55
2021/01/10 04:11:35;;;;;;;2.30;0.77;;;3.90;74.40;;;;;;5030767;28;20037;-59
2021/01/10 04:14:01;;;;;;;3.47;0.50;;;4.00;75.10;;;;;;5030462;28;20413;-58
2021/01/10 04:16:26;;;;;;;2.85;1.08;;;3.90;75.70;;;;;;5030459;28;20044;-58
2021/01/10 04:18:52;;;;;;;2.03;0.90;;;3.90;76.00;;;;;;5030834;28;20086;-55
2021/01/10 04:21:18;;;;;;;2.45;0.80;;;3.90;74.70;;;;;;5030443;28;20114;-58
2021/01/10 04:23:44;;;;;;;2.40;1.00;;;3.90;76.70;;;;;;5030325;28;20138;-58
2021/01/10 04:26:09;;;;;;;2.15;1.08;;;3.90;76.60;;;;;;5030248;28;20029;-57
2021/01/10 04:28:35;;;;;;;4.32;1.58;;;3.90;75.20;;;;;;5030337;28;20045;-58
2021/01/10 04:31:01;;;;;;;2.95;1.10;;;3.90;74.00;;;;;;5030521;28;20470;-58
2021/01/10 04:33:28;;;;;;;2.45;1.13;;;4.00;74.20;;;;;;5030172;28;20037;-58
2021/01/10 04:35:54;;;;;;;3.08;0.98;;;4.00;74.50;;;;;;5030189;28;20037;-59
2021/01/10 04:38:20;;;;;;;2.28;1.38;;;4.00;73.90;;;;;;5030210;28;20045;-58
2021/01/10 04:40:46;;;;;;;2.65;1.35;;;4.00;73.60;;;;;;5029931;28;20417;-58
2021/01/10 04:43:13;;;;;;;2.80;1.20;;;4.00;74.40;;;;;;5029933;28;20053;-56
2021/01/10 04:45:39;;;;;;;2.25;1.00;;;3.90;75.00;;;;;;5029989;28;20025;-58
2021/01/10 04:48:06;;;;;;;3.25;0.88;;;3.80;77.10;;;;;;5029421;28;20477;-58
2021/01/10 04:50:34;;;;;;;3.25;0.93;;;3.80;75.90;;;;;;5029923;28;20040;-58
2021/01/10 04:53:02;;;;;;;2.75;1.23;;;3.80;76.30;;;;;;5029999;28;20079;-58
2021/01/10 04:55:31;;;;;;;2.67;0.90;;;3.70;77.10;;;;;;5030118;28;20029;-58
2021/01/10 04:58:07;;;;;;;2.03;0.85;;;3.80;74.30;;;;;;5029803;28;20030;-58
2021/01/10 05:00:35;;;;;;;2.33;0.95;;;3.90;74.10;;;;;;5029677;28;20036;-58
2021/01/10 05:03:05;;;;;;;3.47;1.50;;;3.90;74.00;;;;;;5029727;28;20357;-58
2021/01/10 05:05:36;;;;;;;3.83;0.88;;;3.80;75.20;;;;;;5029297;28;20108;-59
2021/01/10 05:08:06;;;;;;;2.60;1.23;;;3.80;74.50;;;;;;5029408;28;20494;-58
2021/01/10 05:10:32;;;;;;;2.38;0.80;;;3.90;73.50;;;;;;5029663;28;20538;-58
2021/01/10 05:12:57;;;;;;;3.50;1.10;;;3.90;74.30;;;;;;5029326;28;20037;-57
2021/01/10 05:15:23;;;;;;;1.88;0.90;;;3.90;74.40;;;;;;5029190;28;20083;-58
2021/01/10 05:17:56;;;;;;;3.05;0.88;;;3.80;75.30;;;;;;5029494;28;20048;-58
2021/01/10 05:20:26;;;;;;;7.85;1.13;;;3.80;74.60;;;;;;5029539;28;20030;-58
2021/01/10 05:22:52;;;;;;;1.90;0.80;;;3.80;75.20;;;;;;5029125;28;20053;-58
2021/01/10 05:25:19;;;;;;;3.85;1.08;;;3.80;74.80;;;;;;5029459;28;20065;-59
2021/01/10 05:27:51;;;;;;;2.90;1.10;;;3.80;76.80;;;;;;5029117;28;20029;-52
2021/01/10 05:30:29;;;;;;;2.67;0.85;;;3.70;74.90;;;;;;5029113;28;20116;-58
2021/01/10 05:33:02;;;;;;;2.88;1.30;;;3.80;75.70;;;;;;5029256;28;20037;-58
2021/01/10 05:35:28;;;;;;;1.85;0.85;;;3.70;77.00;;;;;;5029239;28;20131;-59
2021/01/10 05:37:55;;;;;;;2.97;1.00;;;3.70;75.40;;;;;;5029112;28;20056;-59
2021/01/10 05:40:28;;;;;;;3.35;1.35;;;3.70;76.70;;;;;;5029055;28;20417;-59
2021/01/10 05:43:05;;;;;;;3.10;1.25;;;3.60;76.10;;;;;;5028944;28;20123;-59
2021/01/10 05:45:35;;;;;;;2.55;1.02;;;3.60;78.50;;;;;;5028825;28;20512;-59
2021/01/10 05:48:12;;;;;;;4.35;1.35;;;3.50;77.50;;;;;;5028920;28;20424;-59
2021/01/10 05:50:46;;;;;;;4.70;2.03;;;3.60;78.30;;;;;;5028714;28;20187;-59
2021/01/10 05:53:25;;;;;;;2.10;0.82;;;3.50;77.30;;;;;;5028757;28;20037;-56
2021/01/10 05:56:01;;;;;;;2.13;0.90;;;3.60;75.30;;;;;;5028787;28;20481;-55
2021/01/10 05:58:30;;;;;;;1.88;0.85;;;3.60;75.60;;;;;;5028658;28;20466;-56
2021/01/10 06:01:00;;;;;;;1.63;0.70;;;3.70;76.10;;;;;;5022959;28;20045;-59
2021/01/10 06:03:31;;;;;;;3.38;1.20;;;3.70;76.50;;;;;;5007843;28;20042;-58
2021/01/10 06:05:58;;;;;;;2.35;1.10;;;3.60;74.70;;;;;;5007754;28;20420;-59
2021/01/10 06:08:32;;;;;;;2.83;0.75;;;3.70;75.70;;;;;;5008881;28;20466;-59
2021/01/10 06:11:27;;;;;;;2.25;0.75;;;3.70;75.60;;;;;;5007662;28;20060;-58
2021/01/10 06:13:56;;;;;;;1.52;0.75;;;3.60;76.00;;;;;;5009219;28;20034;-58
2021/01/10 06:16:24;;;;;;;2.33;0.90;;;3.70;75.50;;;;;;5007402;28;20060;-59
2021/01/10 06:18:57;;;;;;;4.70;0.90;;;3.60;76.20;;;;;;5006477;28;20505;-57
2021/01/10 06:21:29;;;;;;;4.35;1.70;;;3.60;75.40;;;;;;5004898;28;20042;-57
2021/01/10 06:24:00;;;;;;;3.20;1.27;;;3.70;74.60;;;;;;5008707;28;20488;-58
2021/01/10 06:26:31;;;;;;;2.92;0.90;;;3.70;76.00;;;;;;5007493;28;20084;-57
2021/01/10 06:29:08;;;;;;;2.70;1.00;;;3.70;75.80;;;;;;5008684;28;20045;-58
2021/01/10 06:31:37;;;;;;;3.08;1.17;;;3.60;76.30;;;;;;5007284;28;20108;-58
2021/01/10 06:34:06;;;;;;;2.95;1.15;;;3.70;76.00;;;;;;5007421;28;20037;-59
2021/01/10 06:36:41;;;;;;;4.10;1.52;;;3.60;75.90;;;;;;5007682;28;20539;-59
2021/01/10 06:39:09;;;;;;;4.07;1.48;;;3.60;78.00;;;;;;5008838;28;20062;-59
2021/01/10 06:41:35;;;;;;;2.97;1.00;;;3.60;76.50;;;;;;5008015;28;20073;-59
2021/01/10 06:44:07;;;;;;;3.42;1.17;;;3.60;76.40;;;;;;5007268;28;20073;-58
2021/01/10 06:46:33;;;;;;;2.28;1.20;;;3.60;77.40;;;;;;5007448;28;20054;-58
2021/01/10 06:49:03;;;;;;;3.75;1.17;;;3.60;77.90;;;;;;5008600;28;20045;-59
2021/01/10 06:51:30;;;;;;;2.83;1.10;;;3.60;77.30;;;;;;5007147;28;20045;-59
2021/01/10 06:53:56;;;;;;;2.53;1.10;;;3.60;76.80;;;;;;5007433;28;20041;-59
2021/01/10 06:56:22;;;;;;;3.38;1.20;;;3.60;77.60;;;;;;5007342;28;20040;-59
2021/01/10 06:59:11;;;;;;;2.85;1.10;;;3.60;78.30;;;;;;5008431;28;20022;-59
2021/01/10 07:01:48;;;;;;;2.50;1.20;;;3.50;77.50;;;;;;5007135;28;20129;-59
2021/01/10 07:04:15;;;;;;;3.90;1.38;;;3.50;79.10;;;;;;5007160;28;20038;-59
2021/01/10 07:06:48;;;;;;;4.10;1.40;;;3.50;79.50;;;;;;5007604;28;20049;-59
2021/01/10 07:09:15;;;;;;;2.58;1.58;;;3.50;77.60;;;;;;5008793;28;20112;-58
2021/01/10 07:11:42;;;;;;;4.20;1.60;;;3.50;79.20;;;;;;5009290;28;20026;-58
2021/01/10 07:14:13;;;;;;;2.70;1.20;;;3.40;78.60;;;;;;5009499;28;20112;-57
2021/01/10 07:16:44;;;;;;;3.53;1.48;;;3.50;78.50;;;;;;5008986;28;20159;-59
2021/01/10 07:19:14;;;;;;;4.10;1.52;;;3.50;78.00;;;;;;5010689;28;20052;-59
2021/01/10 07:21:47;;;;;;;2.47;1.08;;;3.60;78.80;;;;;;5011706;28;20025;-58
2021/01/10 07:24:16;;;;;;;4.32;1.65;;;3.50;78.70;;;;;;5009712;28;20038;-59
2021/01/10 07:26:49;;;;;;;2.78;1.00;;;3.60;77.50;;;;;;5011363;28;20052;-58
2021/01/10 07:29:30;;;;;;;4.10;1.25;;;3.60;78.20;;;;;;5010296;28;20054;-58
2021/01/10 07:32:09;;;;;;;4.13;1.45;;;3.60;78.80;;;;;;5011334;28;20117;-59
2021/01/10 07:34:56;;;;;;;3.95;1.70;;;3.60;78.40;;;;;;5008979;28;20473;-60
2021/01/10 07:37:25;;;;;;;3.40;1.85;;;3.60;78.90;;;;;;5010948;28;20046;-59
2021/01/10 07:39:53;;;;;;;3.20;1.75;;;3.60;79.20;;;;;;5009098;28;20041;-59
2021/01/10 07:42:22;;;;;;;2.55;1.13;;;3.60;76.20;;;;;;5011330;28;20389;-59
2021/01/10 07:44:55;;;;;;;3.72;2.10;;;3.70;77.20;;;;;;5009505;28;20026;-59
2021/01/10 07:47:29;;;;;;;2.67;1.30;;;3.70;78.30;;;;;;5010321;28;20054;-59
2021/01/10 07:49:58;;;;;;;3.53;1.67;;;3.70;78.50;;;;;;5010181;28;20038;-59
2021/01/10 07:52:57;;;;;;;3.70;1.88;;;3.60;79.10;;;;;;5011008;28;20040;-59
2021/01/10 07:55:30;;;;;;;3.15;1.40;;;3.60;79.20;;;;;;5008294;28;20033;-59
2021/01/10 07:58:02;;;;;;;4.57;2.15;;;3.60;79.40;;;;;;5009428;28;20401;-59
2021/01/10 08:00:33;;;;;;;4.43;1.92;;;3.70;78.30;;;;;;5011431;28;20072;-59
2021/01/10 08:03:08;;;;;;;5.28;1.92;;;3.60;80.50;;;;;;5009001;28;20038;-60
2021/01/10 08:05:38;;;;;;;4.80;2.50;;;3.70;80.40;;;;;;5005981;28;20046;-60
2021/01/10 08:08:16;;;;;;;5.15;2.38;;;3.70;80.60;;;;;;5009484;28;20596;-59
2021/01/10 08:10:53;;;;;;;4.22;2.13;;;3.60;80.50;;;;;;5010781;28;20036;-59
2021/01/10 08:13:35;;;;;;;4.50;2.05;;;3.70;81.50;;;;;;5010526;28;20104;-58
2021/01/10 08:16:08;;;;;;;6.30;2.67;;;3.70;81.50;;;;;;5010714;28;20137;-59
2021/01/10 08:18:36;;;;;;;5.60;2.67;;;3.70;82.00;;;;;;5010459;28;20045;-59
2021/01/10 08:21:04;;;;;;;4.95;2.00;;;3.70;81.50;;;;;;5010464;28;20030;-58
2021/01/10 08:23:31;;;;;;;6.03;2.72;;;3.70;80.70;;;;;;5008961;28;20378;-59
2021/01/10 08:26:03;;;;;;;3.15;1.67;;;3.70;80.30;;;;;;5010350;28;20038;-59
2021/01/10 08:28:32;;;;;;;5.78;2.03;;;3.80;79.80;;;;;;5007670;28;20053;-59
2021/01/10 08:31:02;;;;;;;4.57;1.67;;;3.80;80.30;;;;;;5009845;28;20038;-58
2021/01/10 08:33:29;;;;;;;3.70;1.67;;;3.90;78.10;;;;;;5010169;28;20413;-58
2021/01/10 08:36:10;;;;;;;4.95;1.95;;;3.90;79.00;;;;;;4993944;28;20116;-58
2021/01/10 08:38:47;;;;;;;5.18;2.05;;;3.90;79.90;;;;;;4998150;28;20037;-58
2021/01/10 08:41:21;;;;;;;4.75;2.35;;;3.90;79.70;;;;;;5009283;28;20026;-59
2021/01/10 08:43:52;;;;;;;3.33;2.00;;;3.80;81.10;;;;;;5010061;28;20413;-59
2021/01/10 08:46:18;;;;;;;5.85;1.58;;;3.80;79.90;;;;;;5007126;28;20040;-58
2021/01/10 08:48:44;;;;;;;3.22;1.63;;;3.90;78.40;;;;;;5001607;28;20041;-59
2021/01/10 08:51:11;;;;;;;3.70;1.52;;;3.90;78.20;;;;;;5009778;28;20037;-58
2021/01/10 08:53:41;;;;;;;2.95;1.52;;;3.90;78.40;;;;;;5009589;28;20373;-57
2021/01/10 08:56:14;;;;;;;3.22;1.42;;;3.90;77.80;;;;;;5009533;28;20209;-59
2021/01/10 08:58:43;;;;;;;3.13;1.33;;;3.90;77.40;;;;;;5009230;28;20473;-54
2021/01/10 09:01:18;;;;;;;2.83;1.10;;;3.90;77.60;;;;;;5006192;28;20485;-58
2021/01/10 09:04:21;;;;;;;2.35;1.17;;;3.90;78.60;;;;;;5009837;28;20592;-59
2021/01/10 09:07:04;;;;;;;2.83;1.17;;;4.00;80.00;;;;;;5005590;28;20081;-59
2021/01/10 09:09:53;;;;;;;4.22;1.15;;;4.00;77.20;;;;;;5009737;28;20038;-58
2021/01/10 09:12:38;;;;;;;4.00;1.35;;;4.10;77.40;;;;;;5008889;28;20037;-58
2021/01/10 09:15:18;;;;;;;2.42;1.17;;;4.10;77.60;;;;;;5009678;28;20417;-60
2021/01/10 09:17:59;;;;;;;3.08;1.13;;;4.20;78.60;;;;;;5005508;28;20030;-59
2021/01/10 09:20:39;;;;;;;2.67;1.08;;;4.20;79.30;;;;;;5009393;28;20034;-59
2021/01/10 09:23:09;;;;;;;3.50;1.42;;;4.20;78.40;;;;;;5009512;28;20037;-58
2021/01/10 09:25:36;;;;;;;2.92;1.35;;;4.10;78.80;;;;;;5008971;28;20141;-59
2021/01/10 09:28:16;;;;;;;3.15;0.90;;;4.10;76.30;;;;;;5009556;28;20042;-59
2021/01/10 09:30:56;;;;;;;2.85;1.13;;;4.10;76.00;;;;;;5008879;28;20320;-59
2021/01/10 09:33:26;;;;;;;2.55;0.80;;;4.10;76.20;;;;;;5009160;28;20034;-58
2021/01/10 09:35:54;;;;;;;3.15;0.70;;;4.10;75.50;;;;;;5008644;28;20040;-59
2021/01/10 09:38:22;;;;;;;1.77;0.80;;;4.10;76.20;;;;;;5018249;28;20061;-59
2021/01/10 09:41:00;;;;;;;3.08;0.95;;;4.10;77.20;;;;;;5029510;28;20083;-59
2021/01/10 09:43:52;;;;;;;2.92;1.10;;;4.10;77.40;;;;;;4989531;28;20041;-57
2021/01/10 09:46:38;;;;;;;2.63;0.70;;;4.10;75.50;;;;;;5008173;28;20034;-59
2021/01/10 09:49:05;;;;;;;2.20;0.90;;;4.00;77.20;;;;;;5006979;28;20038;-58
2021/01/10 09:51:42;;;;;;;2.17;0.80;;;4.10;76.70;;;;;;5014083;28;20066;-59
2021/01/10 09:54:16;;;;;;;1.33;0.52;;;4.10;76.90;;;;;;5016362;28;20021;-57
2021/01/10 09:56:42;;;;;;;5.43;1.00;;;4.10;75.30;;;;;;5003729;28;20501;-58
2021/01/10 09:59:45;;;;;;;1.20;0.50;;;4.10;74.90;;;;;;5006061;28;20573;-55
2021/01/10 10:02:20;;;;;;;1.85;0.60;;;4.20;73.50;;;;;;5006484;28;20474;-56
2021/01/10 10:04:48;;;;;;;1.70;0.65;;;4.10;75.10;;;;;;5007336;28;20169;-51
2021/01/10 10:07:32;;;;;;;1.35;0.60;;;4.10;74.30;;;;;;5002909;28;20053;-58
2021/01/10 10:09:58;;;;;;;1.65;0.57;;;4.20;74.10;;;;;;5007982;28;20026;-55
2021/01/10 10:12:25;;;;;;;2.10;0.70;;;4.10;73.90;;;;;;5006581;28;20057;-58
2021/01/10 10:15:00;;;;;;;1.90;0.60;;;4.10;77.20;;;;;;5008512;28;20080;-58
2021/01/10 10:17:28;;;;;;;1.50;0.80;;;4.10;75.70;;;;;;5003187;28;20033;-57
2021/01/10 10:19:55;;;;;;;1.00;0.50;;;4.10;74.00;;;;;;5004189;28;20121;-55
2021/01/10 10:22:23;;;;;;;1.55;0.50;;;4.10;73.30;;;;;;5005898;28;20040;-58
2021/01/10 10:24:50;;;;;;;2.60;0.85;;;4.20;74.30;;;;;;5006754;28;20517;-57
2021/01/10 10:27:16;;;;;;;1.92;0.60;;;4.10;75.30;;;;;;5003769;28;20136;-51
2021/01/10 10:29:42;;;;;;;2.75;0.98;;;4.10;74.80;;;;;;5001850;28;20037;-54
2021/01/10 10:32:08;;;;;;;5.65;0.60;;;4.10;74.90;;;;;;5006156;28;20030;-54
2021/01/10 10:34:35;;;;;;;4.07;0.70;;;4.10;75.10;;;;;;5007152;28;20030;-56
2021/01/10 10:37:01;;;;;;;1.83;0.60;;;4.10;74.60;;;;;;5004532;28;20080;-56
2021/01/10 10:39:27;;;;;;;2.30;0.70;;;4.20;75.40;;;;;;5007418;28;20385;-58
2021/01/10 10:41:53;;;;;;;1.38;0.50;;;4.20;76.40;;;;;;5006796;28;20046;-57
2021/01/10 10:44:19;;;;;;;2.15;1.00;;;4.20;76.30;;;;;;5008510;28;20029;-57
2021/01/10 10:46:45;;;;;;;1.33;0.70;;;4.20;75.20;;;;;;5008513;28;20462;-57
2021/01/10 10:49:11;;;;;;;2.33;0.70;;;4.20;74.30;;;;;;5011206;28;20034;-55
2021/01/10 10:51:38;;;;;;;1.52;0.70;;;4.20;76.00;;;;;;5010663;28;20112;-54
2021/01/10 10:54:03;;;;;;;1.98;0.70;;;4.10;74.30;;;;;;5012782;28;20057;-55
2021/01/10 10:56:46;;;;;;;2.03;1.00;;;4.20;74.30;;;;;;5010884;28;20061;-57
2021/01/10 10:59:12;;;;;;;2.08;0.73;;;4.20;75.80;;;;;;5012319;28;20030;-57
2021/01/10 11:01:47;;;;;;;1.63;0.80;;;4.10;75.30;;;;;;5012275;28;20061;-58
2021/01/10 11:04:12;;;;;;;1.92;0.70;;;4.10;76.70;;;;;;5011926;28;20423;-56
2021/01/10 11:06:39;;;;;;;1.40;0.60;;;4.10;76.50;;;;;;5009446;28;20042;-58
2021/01/10 11:09:08;;;;;;;1.80;0.50;;;4.10;76.10;;;;;;5012289;28;20069;-56
2021/01/10 11:11:39;;;;;;;1.55;0.60;;;4.20;74.00;;;;;;5011317;28;20416;-56
2021/01/10 11:14:06;;;;;;;1.90;0.70;;;4.20;75.20;;;;;;5007361;28;20083;-56
2021/01/10 11:16:34;;;;;;;1.10;0.50;;;4.20;75.20;;;;;;5007594;28;20442;-55
2021/01/10 11:19:00;;;;;;;1.85;0.60;;;4.20;75.40;;;;;;5010687;28;20513;-59
2021/01/10 11:21:27;;;;;;;2.42;0.80;;;4.20;77.20;;;;;;5010049;28;20033;-55
2021/01/10 11:23:53;;;;;;;2.28;0.80;;;4.20;76.10;;;;;;5008875;28;20038;-57
2021/01/10 11:26:19;;;;;;;4.68;1.58;;;4.30;76.10;;;;;;5010561;28;20033;-58
2021/01/10 11:28:45;;;;;;;3.58;0.95;;;4.30;75.60;;;;;;5010362;28;20390;-55
2021/01/10 11:31:10;;;;;;;2.30;0.70;;;4.30;75.40;;;;;;5010761;28;20033;-56
2021/01/10 11:33:36;;;;;;;5.25;1.08;;;4.30;75.30;;;;;;5010032;28;20033;-57
2021/01/10 11:36:05;;;;;;;3.45;1.27;;;4.30;76.20;;;;;;5009221;28;20540;-56
2021/01/10 11:38:32;;;;;;;2.08;0.98;;;4.30;75.90;;;;;;5005953;28;20087;-57
2021/01/10 11:40:58;;;;;;;3.20;1.15;;;4.30;75.80;;;;;;5013598;28;20508;-57
2021/01/10 11:43:23;;;;;;;2.42;0.80;;;4.30;74.50;;;;;;5002146;28;20038;-56
2021/01/10 11:45:49;;;;;;;1.35;0.47;;;4.30;74.50;;;;;;5010507;28;20128;-58
2021/01/10 11:48:15;;;;;;;1.30;0.60;;;4.30;74.40;;;;;;4989852;28;20042;-57
2021/01/10 11:50:41;;;;;;;1.70;0.50;;;4.20;74.20;;;;;;5017163;28;20081;-56
2021/01/10 11:53:06;;;;;;;2.50;0.75;;;4.30;75.40;;;;;;5010996;28;20108;-57
2021/01/10 11:55:35;;;;;;;4.63;0.63;;;4.30;76.10;;;;;;5010423;28;20022;-57
2021/01/10 11:58:01;;;;;;;2.70;0.75;;;4.30;74.70;;;;;;5027570;28;20035;-57
2021/01/10 12:00:27;;;;;;;2.72;0.60;;;4.20;73.10;;;;;;5011798;28;20042;-59
2021/01/10 12:02:53;;;;;;;4.18;1.40;;;4.20;75.00;;;;;;5008602;28;20037;-57
2021/01/10 12:05:19;;;;;;;1.50;0.68;;;4.20;75.40;;;;;;5007332;28;20054;-56
2021/01/10 12:07:44;;;;;;;1.77;0.70;;;4.20;74.00;;;;;;5007669;28;20053;-57
2021/01/10 12:10:10;;;;;;;2.05;0.88;;;4.20;76.00;;;;;;5007422;28;20030;-58
2021/01/10 12:12:36;;;;;;;2.30;1.10;;;4.20;76.00;;;;;;5010828;28;20037;-57
2021/01/10 12:15:02;;;;;;;1.70;0.55;;;4.10;76.50;;;;;;5009142;28;20088;-56
2021/01/10 12:17:29;;;;;;;4.22;1.27;;;4.10;74.30;;;;;;5009075;28;20033;-57
2021/01/10 12:19:55;;;;;;;2.97;1.38;;;4.10;74.70;;;;;;5009310;28;20402;-57
2021/01/10 12:22:20;;;;;;;2.55;1.02;;;4.10;74.40;;;;;;5005497;28;20037;-59
2021/01/10 12:24:48;;;;;;;3.72;1.30;;;4.10;76.00;;;;;;5007687;28;20037;-57
2021/01/10 12:27:14;;;;;;;2.65;0.68;;;4.10;73.00;;;;;;5008997;28;20045;-58
2021/01/10 12:29:39;;;;;;;2.35;0.82;;;4.10;74.10;;;;;;5007712;28;20382;-57
2021/01/10 12:32:05;;;;;;;2.15;0.75;;;4.20;73.40;;;;;;5008921;28;20076;-58
2021/01/10 12:34:31;;;;;;;1.88;0.88;;;4.20;74.90;;;;;;5008594;28;20061;-58
2021/01/10 12:36:58;;;;;;;1.15;0.50;;;4.20;74.20;;;;;;5009149;28;20038;-59
2021/01/10 12:39:24;;;;;;;2.30;0.63;;;4.20;74.10;;;;;;5008467;28;20045;-58
2021/01/10 12:41:50;;;;;;;2.42;0.77;;;4.10;73.90;;;;;;5009054;28;20041;-59
2021/01/10 12:44:16;;;;;;;1.80;0.63;;;4.10;74.20;;;;;;5008445;28;20041;-58
2021/01/10 12:46:42;;;;;;;1.95;0.60;;;4.10;74.30;;;;;;5008721;28;20777;-57
2021/01/10 12:49:08;;;;;;;1.70;0.50;;;4.10;72.10;;;;;;5009361;28;20164;-57
2021/01/10 12:51:38;;;;;;;1.30;0.50;;;4.10;73.70;;;;;;5009108;28;20041;-58
2021/01/10 12:54:05;;;;;;;1.70;0.60;;;4.10;74.50;;;;;;5005333;28;20443;-58
2021/01/10 12:56:31;;;;;;;2.13;0.50;;;4.10;73.80;;;;;;5008371;28;20068;-53
2021/01/10 12:58:57;;;;;;;1.23;0.50;;;4.00;72.70;;;;;;5008590;28;20034;-57
2021/01/10 13:01:22;;;;;;;1.92;0.60;;;4.10;73.60;;;;;;5008409;28;20646;-58
2021/01/10 13:03:48;;;;;;;1.98;0.75;;;4.00;73.50;;;;;;5009136;28;20025;-57
2021/01/10 13:06:14;;;;;;;1.77;0.52;;;4.00;73.80;;;;;;5007894;28;20377;-57
2021/01/10 13:08:40;;;;;;;1.90;0.50;;;4.00;75.00;;;;;;5007475;28;20046;-56
2021/01/10 13:11:06;;;;;;;0.90;0.40;;;4.00;74.40;;;;;;5008258;28;20042;-60
2021/01/10 13:13:32;;;;;;;1.35;0.60;;;4.00;75.70;;;;;;5007943;28;20037;-57